ARG2RK SAWC-SAWH
Flight info
| Callsign | ARG2RK |
|---|---|
| Flight time | 0h 59m |
| Altitude | 37000 |
| Route | DEVIS2D DEVIS UW52 GAL UW42 GRA DCT DABLI DABLI1Q |
| Aircraft | B738/M-SDE2E3FGHIRWXY/LB1 |
Departure
| Time | 2026-04-26 19:36 |
|---|---|
| Airport | El Calafate - Commander Armando Tola International Airport (SAWC) |
Arrival
| Time | 2026-04-26 20:36 |
|---|---|
| Airport | Ushuaia - Malvinas Argentinas International Airport (SAWH) |
| Time | Latitude | Longitude | Altitude | Speed | Heading |
|---|---|---|---|---|---|
| 2026-04-26 19:01 | -50.28339 | -72.05385 | 639 ft | 0 kts | 175° |
| 2026-04-26 19:26 | -50.28336 | -72.05385 | 640 ft | 2 kts | 176° |
| 2026-04-26 19:26 | -50.28319 | -72.05385 | 640 ft | 3 kts | 193° |
| 2026-04-26 19:26 | -50.28301 | -72.05374 | 642 ft | 3 kts | 219° |
| 2026-04-26 19:27 | -50.28289 | -72.05355 | 643 ft | 2 kts | 232° |
| 2026-04-26 19:27 | -50.28288 | -72.05353 | 643 ft | 1 kts | 233° |
| 2026-04-26 19:30 | -50.28289 | -72.05354 | 643 ft | 1 kts | 233° |
| 2026-04-26 19:31 | -50.28291 | -72.05376 | 640 ft | 2 kts | 279° |
| 2026-04-26 19:31 | -50.28272 | -72.05392 | 641 ft | 5 kts | 342° |
| 2026-04-26 19:31 | -50.28227 | -72.05402 | 640 ft | 8 kts | 359° |
| 2026-04-26 19:31 | -50.28176 | -72.05406 | 640 ft | 2 kts | 356° |
| 2026-04-26 19:32 | -50.28147 | -72.05409 | 640 ft | 6 kts | 356° |
| 2026-04-26 19:32 | -50.28128 | -72.05411 | 640 ft | 2 kts | 356° |
| 2026-04-26 19:32 | -50.28104 | -72.05413 | 641 ft | 5 kts | 356° |
| 2026-04-26 19:32 | -50.28062 | -72.05417 | 642 ft | 7 kts | 360° |
| 2026-04-26 19:33 | -50.28024 | -72.05366 | 642 ft | 9 kts | 71° |
| 2026-04-26 19:33 | -50.28015 | -72.05253 | 642 ft | 13 kts | 84° |
| 2026-04-26 19:33 | -50.28005 | -72.05080 | 642 ft | 19 kts | 84° |
| 2026-04-26 19:33 | -50.27991 | -72.04860 | 644 ft | 23 kts | 84° |
| 2026-04-26 19:34 | -50.27976 | -72.04587 | 642 ft | 28 kts | 85° |
| 2026-04-26 19:34 | -50.27957 | -72.04262 | 641 ft | 32 kts | 84° |
| 2026-04-26 19:34 | -50.27934 | -72.03893 | 639 ft | 36 kts | 84° |
| 2026-04-26 19:34 | -50.27959 | -72.03677 | 640 ft | 19 kts | 116° |
| 2026-04-26 19:35 | -50.27959 | -72.03578 | 641 ft | 1 kts | 50° |
| 2026-04-26 19:35 | -50.27941 | -72.03567 | 642 ft | 5 kts | 13° |
| 2026-04-26 19:35 | -50.27918 | -72.03581 | 641 ft | 1 kts | 295° |
| 2026-04-26 19:35 | -50.27918 | -72.03626 | 641 ft | 7 kts | 263° |
| 2026-04-26 19:36 | -50.27936 | -72.03898 | 639 ft | 59 kts | 265° |
| 2026-04-26 19:36 | -50.27951 | -72.04149 | 640 ft | 84 kts | 265° |
| 2026-04-26 19:36 | -50.28096 | -72.06602 | 768 ft | 175 kts | 265° |
| 2026-04-26 19:36 | -50.28235 | -72.08503 | 1651 ft | 179 kts | 263° |
| 2026-04-26 19:37 | -50.28366 | -72.10412 | 2713 ft | 177 kts | 267° |
| 2026-04-26 19:37 | -50.28476 | -72.12453 | 3210 ft | 202 kts | 267° |
| 2026-04-26 19:37 | -50.28602 | -72.14786 | 3495 ft | 225 kts | 266° |
| 2026-04-26 19:37 | -50.28741 | -72.17268 | 4206 ft | 230 kts | 267° |
| 2026-04-26 19:38 | -50.28883 | -72.19783 | 4995 ft | 237 kts | 267° |
| 2026-04-26 19:38 | -50.29032 | -72.22392 | 5672 ft | 247 kts | 267° |
| 2026-04-26 19:38 | -50.29186 | -72.25053 | 6711 ft | 244 kts | 267° |
| 2026-04-26 19:38 | -50.29339 | -72.27721 | 7619 ft | 248 kts | 268° |
| 2026-04-26 19:39 | -50.29495 | -72.30435 | 8494 ft | 251 kts | 268° |
| 2026-04-26 19:39 | -50.29652 | -72.33173 | 9421 ft | 254 kts | 268° |
| 2026-04-26 19:39 | -50.29808 | -72.35908 | 10286 ft | 256 kts | 268° |
| 2026-04-26 19:39 | -50.30087 | -72.38693 | 11082 ft | 264 kts | 254° |
| 2026-04-26 19:40 | -50.31026 | -72.41219 | 11936 ft | 275 kts | 235° |
| 2026-04-26 19:40 | -50.32537 | -72.43141 | 12776 ft | 287 kts | 218° |
| 2026-04-26 19:40 | -50.34268 | -72.44748 | 13625 ft | 291 kts | 217° |
| 2026-04-26 19:40 | -50.36055 | -72.46291 | 14388 ft | 298 kts | 209° |
| 2026-04-26 19:41 | -50.38141 | -72.46907 | 15147 ft | 316 kts | 185° |
| 2026-04-26 19:41 | -50.40304 | -72.46133 | 15890 ft | 335 kts | 160° |
| 2026-04-26 19:41 | -50.42245 | -72.43852 | 16134 ft | 368 kts | 133° |
| 2026-04-26 19:41 | -50.42765 | -72.42740 | 16191 ft | 379 kts | 123° |
| 2026-04-26 19:42 | -50.44394 | -72.36016 | 16492 ft | 416 kts | 107° |
| 2026-04-26 19:42 | -50.45201 | -72.31537 | 16636 ft | 435 kts | 107° |
| 2026-04-26 19:42 | -50.45480 | -72.29990 | 16681 ft | 440 kts | 107° |
| 2026-04-26 19:42 | -50.46669 | -72.23724 | 16876 ft | 461 kts | 108° |
| 2026-04-26 19:43 | -50.47655 | -72.18880 | 17270 ft | 468 kts | 109° |
| 2026-04-26 19:43 | -50.48685 | -72.14021 | 17891 ft | 470 kts | 110° |
| 2026-04-26 19:43 | -50.50080 | -72.07558 | 18620 ft | 473 kts | 110° |
| 2026-04-26 19:43 | -50.50797 | -72.04239 | 18938 ft | 475 kts | 110° |
| 2026-04-26 19:44 | -50.51859 | -71.99313 | 19398 ft | 478 kts | 110° |
| 2026-04-26 19:44 | -50.52910 | -71.94403 | 19856 ft | 481 kts | 110° |
| 2026-04-26 19:44 | -50.53974 | -71.89404 | 20328 ft | 483 kts | 110° |
| 2026-04-26 19:44 | -50.55042 | -71.84378 | 20775 ft | 485 kts | 110° |
| 2026-04-26 19:45 | -50.56132 | -71.79326 | 21200 ft | 487 kts | 112° |
| 2026-04-26 19:45 | -50.57729 | -71.74634 | 21559 ft | 485 kts | 130° |
| 2026-04-26 19:45 | -50.59960 | -71.70659 | 22035 ft | 483 kts | 136° |
| 2026-04-26 19:45 | -50.62212 | -71.66801 | 22446 ft | 486 kts | 136° |
| 2026-04-26 19:46 | -50.64521 | -71.62795 | 22810 ft | 489 kts | 135° |
| 2026-04-26 19:46 | -50.66775 | -71.58832 | 23201 ft | 492 kts | 135° |
| 2026-04-26 19:46 | -50.69058 | -71.54773 | 23563 ft | 494 kts | 134° |
| 2026-04-26 19:46 | -50.71337 | -71.50691 | 23889 ft | 496 kts | 134° |
| 2026-04-26 19:47 | -50.73620 | -71.46585 | 24200 ft | 498 kts | 134° |
| 2026-04-26 19:47 | -50.75139 | -71.43849 | 24400 ft | 500 kts | 134° |
| 2026-04-26 19:47 | -50.78217 | -71.38298 | 24826 ft | 502 kts | 134° |
| 2026-04-26 19:47 | -50.80488 | -71.34198 | 25124 ft | 504 kts | 134° |
| 2026-04-26 19:48 | -50.82803 | -71.30014 | 25423 ft | 505 kts | 134° |
| 2026-04-26 19:48 | -50.85120 | -71.25818 | 25793 ft | 505 kts | 134° |
| 2026-04-26 19:48 | -50.87429 | -71.21632 | 26230 ft | 503 kts | 134° |
| 2026-04-26 19:48 | -50.89732 | -71.17449 | 26690 ft | 501 kts | 134° |
| 2026-04-26 19:49 | -50.92019 | -71.13287 | 27124 ft | 500 kts | 134° |
| 2026-04-26 19:49 | -50.94304 | -71.09125 | 27532 ft | 499 kts | 134° |
| 2026-04-26 19:49 | -50.96551 | -71.05026 | 27942 ft | 498 kts | 134° |
| 2026-04-26 19:49 | -50.98829 | -71.00864 | 28382 ft | 497 kts | 134° |
| 2026-04-26 19:50 | -51.00956 | -70.96509 | 28789 ft | 501 kts | 123° |
| 2026-04-26 19:50 | -51.02334 | -70.91412 | 29175 ft | 506 kts | 105° |
| 2026-04-26 19:50 | -51.02905 | -70.85892 | 29663 ft | 505 kts | 97° |
| 2026-04-26 19:50 | -51.03270 | -70.80413 | 30077 ft | 504 kts | 97° |
| 2026-04-26 19:51 | -51.03624 | -70.74862 | 30379 ft | 505 kts | 97° |
| 2026-04-26 19:51 | -51.04005 | -70.69309 | 30685 ft | 505 kts | 98° |
| 2026-04-26 19:51 | -51.04419 | -70.63764 | 31040 ft | 504 kts | 98° |
| 2026-04-26 19:51 | -51.04846 | -70.58238 | 31422 ft | 502 kts | 98° |
| 2026-04-26 19:52 | -51.05344 | -70.52765 | 31774 ft | 500 kts | 105° |
| 2026-04-26 19:52 | -51.06533 | -70.47617 | 32068 ft | 493 kts | 122° |
| 2026-04-26 19:52 | -51.08446 | -70.43162 | 32452 ft | 485 kts | 131° |
| 2026-04-26 19:52 | -51.10531 | -70.38950 | 32856 ft | 483 kts | 133° |
| 2026-04-26 19:53 | -51.12631 | -70.34776 | 33186 ft | 482 kts | 133° |
| 2026-04-26 19:53 | -51.14720 | -70.30608 | 33500 ft | 482 kts | 133° |
| 2026-04-26 19:53 | -51.16771 | -70.26470 | 33853 ft | 480 kts | 132° |
| 2026-04-26 19:53 | -51.18822 | -70.22280 | 34190 ft | 479 kts | 132° |
| 2026-04-26 19:54 | -51.20858 | -70.18085 | 34500 ft | 477 kts | 132° |
| 2026-04-26 19:54 | -51.22884 | -70.13886 | 34793 ft | 476 kts | 132° |
| 2026-04-26 19:54 | -51.24901 | -70.09691 | 35075 ft | 475 kts | 132° |
| 2026-04-26 19:54 | -51.26909 | -70.05509 | 35352 ft | 474 kts | 132° |
| 2026-04-26 19:55 | -51.28915 | -70.01323 | 35636 ft | 473 kts | 132° |
| 2026-04-26 19:55 | -51.30912 | -69.97152 | 35918 ft | 472 kts | 132° |
| 2026-04-26 19:55 | -51.32882 | -69.93033 | 36185 ft | 471 kts | 132° |
| 2026-04-26 19:55 | -51.34870 | -69.88872 | 36435 ft | 470 kts | 132° |
| 2026-04-26 19:56 | -51.36856 | -69.84706 | 36684 ft | 469 kts | 132° |
| 2026-04-26 19:56 | -51.38837 | -69.80546 | 36946 ft | 468 kts | 133° |
| 2026-04-26 19:56 | -51.42807 | -69.72192 | 36995 ft | 471 kts | 132° |
| 2026-04-26 19:57 | -51.46757 | -69.63846 | 36990 ft | 468 kts | 132° |
| 2026-04-26 19:57 | -51.50654 | -69.55584 | 37001 ft | 466 kts | 132° |
| 2026-04-26 19:58 | -51.54563 | -69.47277 | 36996 ft | 464 kts | 132° |
| 2026-04-26 19:58 | -51.58456 | -69.38999 | 36997 ft | 462 kts | 134° |
| 2026-04-26 19:59 | -51.63121 | -69.32167 | 37004 ft | 448 kts | 152° |
| 2026-04-26 19:59 | -51.68622 | -69.27723 | 37010 ft | 440 kts | 162° |
| 2026-04-26 20:00 | -51.74244 | -69.23904 | 37001 ft | 442 kts | 163° |
| 2026-04-26 20:00 | -51.79937 | -69.19998 | 37006 ft | 445 kts | 162° |
| 2026-04-26 20:01 | -51.85645 | -69.16016 | 37008 ft | 447 kts | 162° |
| 2026-04-26 20:01 | -51.91355 | -69.11997 | 36999 ft | 448 kts | 162° |
| 2026-04-26 20:02 | -51.97080 | -69.07953 | 36996 ft | 449 kts | 162° |
| 2026-04-26 20:02 | -52.01850 | -69.04576 | 36989 ft | 449 kts | 162° |
| 2026-04-26 20:03 | -52.08516 | -68.99845 | 36995 ft | 449 kts | 162° |
| 2026-04-26 20:03 | -52.14244 | -68.95767 | 36991 ft | 449 kts | 162° |
| 2026-04-26 20:04 | -52.19970 | -68.91680 | 36983 ft | 449 kts | 162° |
| 2026-04-26 20:04 | -52.25669 | -68.87601 | 36989 ft | 449 kts | 162° |
| 2026-04-26 20:05 | -52.31412 | -68.83479 | 36967 ft | 449 kts | 162° |
| 2026-04-26 20:05 | -52.37095 | -68.79388 | 36972 ft | 449 kts | 162° |
| 2026-04-26 20:06 | -52.42829 | -68.75248 | 36973 ft | 449 kts | 162° |
| 2026-04-26 20:06 | -52.48555 | -68.71103 | 36963 ft | 449 kts | 162° |
| 2026-04-26 20:07 | -52.54274 | -68.66950 | 36959 ft | 449 kts | 162° |
| 2026-04-26 20:07 | -52.59958 | -68.62812 | 36963 ft | 449 kts | 162° |
| 2026-04-26 20:08 | -52.65675 | -68.58637 | 36956 ft | 449 kts | 162° |
| 2026-04-26 20:08 | -52.71399 | -68.54445 | 36954 ft | 449 kts | 162° |
| 2026-04-26 20:09 | -52.77124 | -68.50241 | 36945 ft | 449 kts | 162° |
| 2026-04-26 20:09 | -52.82807 | -68.46057 | 36948 ft | 449 kts | 162° |
| 2026-04-26 20:10 | -52.88520 | -68.41845 | 36942 ft | 450 kts | 162° |
| 2026-04-26 20:10 | -52.94242 | -68.37615 | 36934 ft | 450 kts | 162° |
| 2026-04-26 20:11 | -52.99969 | -68.33367 | 36932 ft | 450 kts | 161° |
| 2026-04-26 20:12 | -53.08503 | -68.27013 | 36926 ft | 450 kts | 161° |
| 2026-04-26 20:12 | -53.14231 | -68.22733 | 36924 ft | 450 kts | 161° |
| 2026-04-26 20:13 | -53.19947 | -68.18449 | 36923 ft | 450 kts | 161° |
| 2026-04-26 20:13 | -53.25662 | -68.14154 | 36926 ft | 450 kts | 161° |
| 2026-04-26 20:14 | -53.31344 | -68.09870 | 36916 ft | 450 kts | 161° |
| 2026-04-26 20:14 | -53.37063 | -68.05547 | 36912 ft | 450 kts | 161° |
| 2026-04-26 20:15 | -53.42779 | -68.01212 | 36914 ft | 450 kts | 161° |
| 2026-04-26 20:15 | -53.48464 | -67.96888 | 36911 ft | 451 kts | 161° |
| 2026-04-26 20:16 | -53.54190 | -67.92520 | 36921 ft | 451 kts | 161° |
| 2026-04-26 20:16 | -53.59869 | -67.88170 | 36907 ft | 438 kts | 161° |
| 2026-04-26 20:16 | -53.62556 | -67.86100 | 36910 ft | 423 kts | 162° |
| 2026-04-26 20:17 | -53.65200 | -67.84064 | 36910 ft | 410 kts | 162° |
| 2026-04-26 20:17 | -53.67749 | -67.82104 | 36899 ft | 397 kts | 162° |
| 2026-04-26 20:17 | -53.70215 | -67.80208 | 36897 ft | 383 kts | 162° |
| 2026-04-26 20:17 | -53.71824 | -67.78972 | 36525 ft | 385 kts | 162° |
| 2026-04-26 20:18 | -53.75134 | -67.76437 | 35472 ft | 395 kts | 163° |
| 2026-04-26 20:18 | -53.77717 | -67.74894 | 34430 ft | 402 kts | 173° |
| 2026-04-26 20:18 | -53.80512 | -67.74099 | 33189 ft | 411 kts | 182° |
| 2026-04-26 20:18 | -53.83425 | -67.73772 | 31870 ft | 426 kts | 182° |
| 2026-04-26 20:19 | -53.86436 | -67.73513 | 30642 ft | 439 kts | 182° |
| 2026-04-26 20:19 | -53.89495 | -67.73257 | 29401 ft | 449 kts | 182° |
| 2026-04-26 20:19 | -53.92653 | -67.72972 | 28135 ft | 456 kts | 181° |
| 2026-04-26 20:19 | -53.95839 | -67.72660 | 26931 ft | 462 kts | 181° |
| 2026-04-26 20:20 | -53.99059 | -67.72327 | 25753 ft | 466 kts | 181° |
| 2026-04-26 20:20 | -54.02309 | -67.71979 | 24806 ft | 466 kts | 181° |
| 2026-04-26 20:20 | -54.05528 | -67.71626 | 24112 ft | 460 kts | 181° |
| 2026-04-26 20:20 | -54.08664 | -67.71281 | 23424 ft | 454 kts | 181° |
| 2026-04-26 20:21 | -54.11805 | -67.70937 | 22577 ft | 450 kts | 181° |
| 2026-04-26 20:21 | -54.14914 | -67.70600 | 21780 ft | 445 kts | 181° |
| 2026-04-26 20:21 | -54.17981 | -67.70269 | 21058 ft | 439 kts | 181° |
| 2026-04-26 20:21 | -54.21025 | -67.69941 | 20315 ft | 434 kts | 181° |
| 2026-04-26 20:22 | -54.24035 | -67.69617 | 19588 ft | 430 kts | 181° |
| 2026-04-26 20:22 | -54.26976 | -67.69300 | 18882 ft | 426 kts | 181° |
| 2026-04-26 20:22 | -54.29925 | -67.68981 | 18192 ft | 423 kts | 181° |
| 2026-04-26 20:22 | -54.32849 | -67.68664 | 17395 ft | 414 kts | 180° |
| 2026-04-26 20:23 | -54.35713 | -67.68352 | 16608 ft | 410 kts | 180° |
| 2026-04-26 20:23 | -54.38553 | -67.68045 | 15909 ft | 406 kts | 180° |
| 2026-04-26 20:23 | -54.41366 | -67.67740 | 15234 ft | 402 kts | 180° |
| 2026-04-26 20:23 | -54.44149 | -67.67437 | 14565 ft | 399 kts | 180° |
| 2026-04-26 20:24 | -54.46903 | -67.67137 | 14046 ft | 393 kts | 180° |
| 2026-04-26 20:24 | -54.49575 | -67.66840 | 13891 ft | 377 kts | 180° |
| 2026-04-26 20:24 | -54.52144 | -67.66556 | 13250 ft | 375 kts | 180° |
| 2026-04-26 20:24 | -54.54745 | -67.66268 | 12593 ft | 374 kts | 181° |
| 2026-04-26 20:25 | -54.57340 | -67.65979 | 11971 ft | 371 kts | 181° |
| 2026-04-26 20:25 | -54.58208 | -67.65882 | 11752 ft | 367 kts | 181° |
| 2026-04-26 20:25 | -54.62333 | -67.65416 | 10751 ft | 347 kts | 181° |
| 2026-04-26 20:25 | -54.64711 | -67.65148 | 10184 ft | 337 kts | 181° |
| 2026-04-26 20:26 | -54.67018 | -67.64889 | 9646 ft | 327 kts | 182° |
| 2026-04-26 20:26 | -54.69189 | -67.64639 | 9672 ft | 300 kts | 182° |
| 2026-04-26 20:26 | -54.71197 | -67.64407 | 9519 ft | 284 kts | 182° |
| 2026-04-26 20:26 | -54.73121 | -67.64189 | 9288 ft | 273 kts | 183° |
| 2026-04-26 20:27 | -54.75007 | -67.63989 | 8913 ft | 271 kts | 183° |
| 2026-04-26 20:27 | -54.76898 | -67.63789 | 8409 ft | 272 kts | 182° |
| 2026-04-26 20:27 | -54.78747 | -67.63804 | 8171 ft | 254 kts | 199° |
| 2026-04-26 20:27 | -54.80270 | -67.64947 | 8060 ft | 228 kts | 220° |
| 2026-04-26 20:28 | -54.81355 | -67.66754 | 7863 ft | 210 kts | 244° |
| 2026-04-26 20:28 | -54.81828 | -67.69075 | 7474 ft | 204 kts | 259° |
| 2026-04-26 20:28 | -54.82109 | -67.71494 | 7111 ft | 202 kts | 266° |
| 2026-04-26 20:28 | -54.82180 | -67.73868 | 6928 ft | 189 kts | 269° |
| 2026-04-26 20:29 | -54.82287 | -67.76044 | 6609 ft | 181 kts | 266° |
| 2026-04-26 20:29 | -54.82417 | -67.78222 | 6395 ft | 177 kts | 266° |
| 2026-04-26 20:29 | -54.82522 | -67.80316 | 6175 ft | 174 kts | 267° |
| 2026-04-26 20:29 | -54.82607 | -67.82404 | 5788 ft | 174 kts | 268° |
| 2026-04-26 20:30 | -54.82687 | -67.84532 | 5488 ft | 178 kts | 268° |
| 2026-04-26 20:30 | -54.82740 | -67.85977 | 5393 ft | 182 kts | 268° |
| 2026-04-26 20:30 | -54.82841 | -67.88845 | 5274 ft | 175 kts | 268° |
| 2026-04-26 20:30 | -54.82912 | -67.90924 | 5067 ft | 171 kts | 268° |
| 2026-04-26 20:31 | -54.82984 | -67.92921 | 4882 ft | 165 kts | 269° |
| 2026-04-26 20:31 | -54.83031 | -67.94278 | 4656 ft | 166 kts | 269° |
| 2026-04-26 20:31 | -54.83100 | -67.96242 | 4413 ft | 166 kts | 269° |
| 2026-04-26 20:31 | -54.83171 | -67.98239 | 4143 ft | 165 kts | 269° |
| 2026-04-26 20:32 | -54.83273 | -68.00228 | 3815 ft | 167 kts | 266° |
| 2026-04-26 20:32 | -54.83410 | -68.02259 | 3475 ft | 169 kts | 266° |
| 2026-04-26 20:32 | -54.83503 | -68.04250 | 3260 ft | 159 kts | 271° |
| 2026-04-26 20:32 | -54.83534 | -68.06118 | 2962 ft | 154 kts | 272° |
| 2026-04-26 20:33 | -54.83574 | -68.07966 | 2663 ft | 150 kts | 270° |
| 2026-04-26 20:33 | -54.83646 | -68.09736 | 2629 ft | 153 kts | 270° |
| 2026-04-26 20:33 | -54.83714 | -68.11693 | 2560 ft | 168 kts | 270° |
| 2026-04-26 20:33 | -54.83782 | -68.13731 | 2178 ft | 169 kts | 270° |
| 2026-04-26 20:34 | -54.83863 | -68.15743 | 1761 ft | 164 kts | 268° |
| 2026-04-26 20:34 | -54.83925 | -68.17664 | 1489 ft | 156 kts | 270° |
| 2026-04-26 20:34 | -54.83971 | -68.19620 | 1133 ft | 163 kts | 268° |
| 2026-04-26 20:34 | -54.84031 | -68.21545 | 922 ft | 155 kts | 266° |
| 2026-04-26 20:35 | -54.84110 | -68.23391 | 607 ft | 156 kts | 266° |
| 2026-04-26 20:35 | -54.84169 | -68.25170 | 419 ft | 144 kts | 265° |
| 2026-04-26 20:35 | -54.84235 | -68.26901 | 205 ft | 141 kts | 265° |
| 2026-04-26 20:35 | -54.84293 | -68.28558 | 88 ft | 126 kts | 264° |
| 2026-04-26 20:36 | -54.84344 | -68.29857 | 83 ft | 81 kts | 266° |
| 2026-04-26 20:36 | -54.84372 | -68.30553 | 80 ft | 49 kts | 265° |
| 2026-04-26 20:36 | -54.84373 | -68.30918 | 84 ft | 18 kts | 302° |
| 2026-04-26 20:36 | -54.84317 | -68.30960 | 85 ft | 7 kts | 352° |
| 2026-04-26 20:37 | -54.84265 | -68.30966 | 84 ft | 7 kts | 357° |
| 2026-04-26 20:37 | -54.84215 | -68.30972 | 85 ft | 7 kts | 355° |
| 2026-04-26 20:37 | -54.84166 | -68.30978 | 83 ft | 7 kts | 355° |
| 2026-04-26 20:37 | -54.84118 | -68.30985 | 83 ft | 7 kts | 355° |
| 2026-04-26 20:38 | -54.84092 | -68.31045 | 83 ft | 7 kts | 274° |
| 2026-04-26 20:38 | -54.84093 | -68.31129 | 82 ft | 7 kts | 271° |
| 2026-04-26 20:38 | -54.84078 | -68.31157 | 86 ft | 1 kts | 343° |
| 2026-04-26 20:38 | -54.84068 | -68.31162 | 84 ft | 3 kts | 347° |
| 2026-04-26 20:39 | -54.84040 | -68.31172 | 85 ft | 1 kts | 349° |
| 2026-04-26 20:39 | -54.84028 | -68.31176 | 84 ft | 0 kts | 349° |